createdAt,value
2022-10-19T00:02:41.604Z,8.45
2022-10-19T00:05:09.935Z,8.10
2022-10-19T00:07:37.954Z,9.43
2022-10-19T00:10:06.369Z,7.57
2022-10-19T00:12:34.650Z,7.57
2022-10-19T00:15:02.483Z,7.85
2022-10-19T00:17:30.526Z,7.60
2022-10-19T00:19:59.919Z,7.15
2022-10-19T00:22:27.852Z,7.68
2022-10-19T00:29:51.744Z,7.10
2022-10-19T00:32:19.962Z,7.53
2022-10-19T00:34:48.002Z,6.95
2022-10-19T00:37:17.438Z,7.90
2022-10-19T00:39:48.146Z,7.40
2022-10-19T00:42:16.291Z,7.68
2022-10-19T00:44:58.760Z,5.82
2022-10-19T00:47:26.795Z,7.45
2022-10-19T00:49:55.494Z,7.07
2022-10-19T00:52:28.408Z,7.35
2022-10-19T00:54:58.010Z,6.05
2022-10-19T00:57:28.310Z,7.15
2022-10-19T00:59:57.173Z,6.68
2022-10-19T01:02:25.107Z,6.22
2022-10-19T01:07:21.478Z,6.43
2022-10-19T01:09:50.794Z,6.78
2022-10-19T01:12:24.219Z,6.78
2022-10-19T01:15:02.529Z,7.50
2022-10-19T01:17:34.561Z,7.15
2022-10-19T01:20:14.125Z,6.68
2022-10-19T01:22:49.499Z,7.30
2022-10-19T01:25:22.897Z,6.50
2022-10-19T01:28:04.595Z,6.38
2022-10-19T01:30:40.290Z,6.70
2022-10-19T01:33:13.394Z,6.80
2022-10-19T01:35:43.895Z,6.45
2022-10-19T01:38:17.170Z,6.30
2022-10-19T01:40:48.687Z,6.32
2022-10-19T01:43:21.491Z,5.75
2022-10-19T01:45:53.417Z,6.53
2022-10-19T01:48:23.253Z,6.43
2022-10-19T01:50:53.656Z,6.80
2022-10-19T01:53:21.930Z,6.97
2022-10-19T01:55:51.371Z,6.28
2022-10-19T01:58:21.170Z,6.60
2022-10-19T02:00:50.972Z,7.72
2022-10-19T02:03:20.800Z,6.28
2022-10-19T02:05:52.174Z,6.82
2022-10-19T02:08:23.465Z,6.43
2022-10-19T02:10:51.342Z,6.70
2022-10-19T02:20:43.806Z,5.55
2022-10-19T02:23:11.777Z,5.68
2022-10-19T02:28:07.632Z,6.28
2022-10-19T02:30:35.753Z,6.63
2022-10-19T02:33:03.689Z,6.22
2022-10-19T02:38:02.521Z,7.03
2022-10-19T02:40:31.130Z,7.22
2022-10-19T02:43:01.792Z,5.63
2022-10-19T02:45:30.602Z,6.45
2022-10-19T02:48:01.204Z,6.32
2022-10-19T02:50:29.207Z,7.10
2022-10-19T02:52:59.471Z,7.05
2022-10-19T02:55:29.363Z,6.50
2022-10-19T02:57:57.498Z,6.65
2022-10-19T03:02:53.261Z,5.93
2022-10-19T03:05:21.308Z,5.68
2022-10-19T03:12:46.076Z,6.20
2022-10-19T03:15:16.372Z,6.43
2022-10-19T03:17:44.423Z,5.80
2022-10-19T03:25:08.053Z,5.93
2022-10-19T03:27:36.288Z,6.43
2022-10-19T03:30:06.221Z,5.15
2022-10-19T03:32:34.287Z,6.70
2022-10-19T03:35:02.372Z,5.82
2022-10-19T03:39:58.772Z,6.10
2022-10-19T03:44:54.452Z,6.55
2022-10-19T03:49:51.867Z,5.53
2022-10-19T03:52:20.189Z,6.65
2022-10-19T03:54:50.549Z,7.80
2022-10-19T03:57:18.491Z,8.50
2022-10-19T04:04:42.457Z,9.18
2022-10-19T04:07:11.702Z,12.13
2022-10-19T04:09:40.450Z,10.43
2022-10-19T04:12:08.521Z,10.65
2022-10-19T04:14:45.780Z,10.45
2022-10-19T04:17:24.404Z,10.50
2022-10-19T04:24:49.115Z,9.35
2022-10-19T04:27:17.105Z,10.65
2022-10-19T04:29:44.886Z,10.50
2022-10-19T04:32:12.591Z,11.32
2022-10-19T04:34:40.423Z,13.27
2022-10-19T04:37:08.295Z,14.88
2022-10-19T04:42:08.901Z,12.07
2022-10-19T04:44:37.142Z,12.23
2022-10-19T04:47:05.185Z,13.95
2022-10-19T04:49:33.070Z,14.43
2022-10-19T04:52:00.799Z,14.15
2022-10-19T04:54:28.721Z,12.02
2022-10-19T05:01:53.107Z,11.40
2022-10-19T05:04:21.174Z,10.88
2022-10-19T05:06:49.286Z,11.98
2022-10-19T05:09:17.133Z,13.20
2022-10-19T05:11:44.938Z,11.93
2022-10-19T05:19:13.822Z,13.07
2022-10-19T05:21:41.627Z,16.75
2022-10-19T05:24:12.891Z,11.18
2022-10-19T05:26:40.824Z,13.02
2022-10-19T05:29:12.900Z,12.88
2022-10-19T05:31:40.955Z,15.40
2022-10-19T05:34:10.158Z,20.23
2022-10-19T05:36:39.001Z,14.18
2022-10-19T05:39:07.345Z,13.63
2022-10-19T05:41:34.802Z,13.32
2022-10-19T05:44:02.763Z,13.93
2022-10-19T05:48:57.897Z,18.23
2022-10-19T05:53:54.955Z,12.93
2022-10-19T05:56:23.647Z,15.18
2022-10-19T05:58:51.083Z,13.52
2022-10-19T06:01:19.835Z,14.02
2022-10-19T06:03:47.408Z,11.98
2022-10-19T06:06:14.853Z,14.15
2022-10-19T06:08:42.252Z,13.63
2022-10-19T06:11:11.850Z,15.18
2022-10-19T06:13:39.594Z,13.20
2022-10-19T06:16:07.967Z,14.00
2022-10-19T06:18:35.747Z,12.00
2022-10-19T06:21:03.711Z,12.38
2022-10-19T06:25:58.552Z,12.75
2022-10-19T06:28:27.254Z,16.92
2022-10-19T06:30:54.739Z,16.30
2022-10-19T06:33:22.150Z,15.55
2022-10-19T06:35:49.528Z,12.15
2022-10-19T06:38:17.425Z,19.17
2022-10-19T06:43:12.116Z,16.55
2022-10-19T06:45:41.131Z,14.43
2022-10-19T06:48:08.609Z,16.05
2022-10-19T06:50:36.277Z,15.05
2022-10-19T06:53:03.652Z,16.02
2022-10-19T06:55:31.026Z,12.32
2022-10-19T06:57:59.115Z,12.65
2022-10-19T07:00:26.678Z,12.63
2022-10-19T07:02:55.817Z,13.38
2022-10-19T07:05:23.375Z,13.88
2022-10-19T07:07:50.849Z,13.50
2022-10-19T07:10:18.359Z,12.80
2022-10-19T07:12:45.817Z,12.68
2022-10-19T07:15:13.314Z,11.98
2022-10-19T07:17:40.819Z,13.52
2022-10-19T07:20:10.700Z,11.93
2022-10-19T07:22:38.094Z,11.13
2022-10-19T07:25:06.229Z,10.90
2022-10-19T07:27:37.809Z,10.82
2022-10-19T07:30:05.676Z,10.77
2022-10-19T07:32:33.101Z,11.65
2022-10-19T07:35:00.555Z,11.57
2022-10-19T07:37:29.333Z,11.35
2022-10-19T07:39:56.765Z,10.63
2022-10-19T07:42:24.231Z,13.30
2022-10-19T07:44:51.693Z,9.60
2022-10-19T07:47:19.283Z,11.75
2022-10-19T07:49:46.716Z,12.68
2022-10-19T07:52:14.208Z,12.05
2022-10-19T07:54:42.998Z,11.75
2022-10-19T07:57:12.087Z,12.80
2022-10-19T07:59:39.601Z,11.30
2022-10-19T08:02:07.824Z,13.02
2022-10-19T08:07:23.004Z,11.95
2022-10-19T08:09:53.694Z,12.10
2022-10-19T08:12:21.693Z,11.20
2022-10-19T08:14:49.131Z,12.90
2022-10-19T08:17:17.524Z,13.02
2022-10-19T08:19:45.221Z,12.63
2022-10-19T08:22:12.848Z,13.23
2022-10-19T08:24:40.346Z,12.88
2022-10-19T08:27:09.155Z,13.20
2022-10-19T08:29:36.617Z,12.88
2022-10-19T08:32:04.092Z,13.05
2022-10-19T08:34:33.137Z,14.30
2022-10-19T08:37:06.739Z,13.45
2022-10-19T08:39:42.341Z,16.65
2022-10-19T08:42:14.888Z,14.13
2022-10-19T08:45:09.582Z,14.45
2022-10-19T08:47:45.758Z,13.75
2022-10-19T08:50:17.617Z,13.13
2022-10-19T08:52:46.363Z,13.52
2022-10-19T08:55:18.048Z,13.77
2022-10-19T08:57:50.961Z,14.52
2022-10-19T09:00:21.349Z,13.02
2022-10-19T09:02:55.629Z,12.60
2022-10-19T09:05:25.741Z,12.25
2022-10-19T09:07:54.077Z,15.60
2022-10-19T09:10:24.793Z,12.40
2022-10-19T09:12:58.605Z,12.13
2022-10-19T09:15:27.739Z,10.68
2022-10-19T09:17:55.582Z,10.57
2022-10-19T09:20:24.195Z,9.23
2022-10-19T09:22:56.311Z,9.68
2022-10-19T09:25:24.242Z,9.88
2022-10-19T09:30:21.282Z,9.43
2022-10-19T09:32:49.513Z,8.18
2022-10-19T09:35:23.689Z,7.22
2022-10-19T09:37:52.121Z,6.82
2022-10-19T09:40:21.608Z,7.68
2022-10-19T09:42:56.603Z,6.97
2022-10-19T09:45:33.631Z,6.93
2022-10-19T09:48:08.744Z,6.72
2022-10-19T09:50:43.639Z,6.05
2022-10-19T09:53:18.294Z,5.03
2022-10-19T09:58:18.383Z,4.95
2022-10-19T10:00:47.906Z,4.15
2022-10-19T10:03:23.189Z,4.10
2022-10-19T10:05:51.485Z,3.30
2022-10-19T10:08:20.201Z,3.70
2022-10-19T10:10:49.031Z,3.75
2022-10-19T10:13:18.786Z,4.22
2022-10-19T10:15:48.961Z,3.45
2022-10-19T10:18:17.385Z,3.28
2022-10-19T10:23:32.252Z,3.25
2022-10-19T10:26:00.611Z,4.28
2022-10-19T10:28:28.946Z,1.85
2022-10-19T10:31:00.732Z,1.85
2022-10-19T10:33:43.860Z,1.52
2022-10-19T10:36:12.353Z,2.17
2022-10-19T10:38:41.932Z,1.33
2022-10-19T10:41:13.106Z,1.80
2022-10-19T10:46:25.873Z,1.90
2022-10-19T10:48:54.339Z,1.75
2022-10-19T10:51:22.900Z,1.52
2022-10-19T10:53:50.337Z,1.73
2022-10-19T10:56:22.682Z,1.70
2022-10-19T10:58:51.935Z,2.40
2022-10-19T11:01:20.726Z,1.83
2022-10-19T11:03:52.196Z,1.83
2022-10-19T11:06:21.926Z,2.45
2022-10-19T11:08:51.002Z,1.92
2022-10-19T11:11:21.379Z,2.30
2022-10-19T11:13:51.313Z,2.15
2022-10-19T11:16:19.957Z,2.40
2022-10-19T11:18:49.698Z,2.17
2022-10-19T11:21:21.010Z,1.83
2022-10-19T11:23:53.769Z,2.35
2022-10-19T11:26:27.283Z,2.25
2022-10-19T11:29:01.825Z,2.10
2022-10-19T11:31:36.508Z,1.70
2022-10-19T11:34:08.753Z,1.90
2022-10-19T11:36:42.380Z,5.80
2022-10-19T11:39:20.088Z,2.35
2022-10-19T11:44:20.952Z,2.22
2022-10-19T11:46:55.122Z,1.40
2022-10-19T11:49:27.242Z,2.13
2022-10-19T11:51:59.995Z,1.85
2022-10-19T11:54:36.192Z,1.52
2022-10-19T11:57:10.534Z,1.92
2022-10-19T11:59:47.501Z,5.53
2022-10-19T12:02:23.757Z,1.60
2022-10-19T12:04:53.381Z,1.55
2022-10-19T12:07:33.464Z,1.65
2022-10-19T12:10:04.403Z,1.17
2022-10-19T12:12:34.513Z,1.40
2022-10-19T12:15:05.990Z,1.30
2022-10-19T12:17:34.813Z,1.30
2022-10-19T12:20:04.105Z,1.50
2022-10-19T12:22:37.236Z,2.22
2022-10-19T12:25:05.247Z,1.50
2022-10-19T12:27:34.681Z,1.75
2022-10-19T12:30:04.097Z,1.42
2022-10-19T12:32:35.168Z,1.80
2022-10-19T12:35:08.707Z,1.45
2022-10-19T12:37:42.007Z,1.67
2022-10-19T12:40:18.161Z,1.90
2022-10-19T12:42:51.788Z,1.48
2022-10-19T12:45:30.331Z,2.00
2022-10-19T12:48:18.693Z,1.67
2022-10-19T12:51:00.391Z,2.13
2022-10-19T12:53:30.552Z,1.55
2022-10-19T12:56:01.960Z,1.45
2022-10-19T12:58:33.067Z,1.40
2022-10-19T13:01:01.821Z,1.77
2022-10-19T13:03:31.923Z,1.55
2022-10-19T13:06:00.135Z,1.75
2022-10-19T13:08:31.455Z,1.40
2022-10-19T13:11:06.728Z,1.60
2022-10-19T13:13:52.857Z,1.38
2022-10-19T13:16:33.070Z,1.38
2022-10-19T13:19:04.404Z,5.88
2022-10-19T13:21:44.661Z,2.00
2022-10-19T13:24:26.606Z,1.70
2022-10-19T13:27:08.965Z,1.20
2022-10-19T13:29:42.766Z,1.98
2022-10-19T13:32:31.122Z,1.73
2022-10-19T13:35:13.415Z,1.38
2022-10-19T13:37:40.792Z,1.60
2022-10-19T13:40:23.695Z,1.23
2022-10-19T13:42:58.623Z,1.25
2022-10-19T13:45:26.064Z,1.55
2022-10-19T13:47:55.992Z,1.30
2022-10-19T13:50:32.317Z,2.25
2022-10-19T13:53:21.134Z,1.73
2022-10-19T13:56:08.124Z,1.38
2022-10-19T13:58:47.855Z,1.40
2022-10-19T14:01:20.281Z,1.33
2022-10-19T14:03:57.341Z,1.45
2022-10-19T14:09:16.628Z,1.42
2022-10-19T14:11:45.952Z,1.52
2022-10-19T14:14:14.584Z,1.60
2022-10-19T14:16:58.364Z,1.77
2022-10-19T14:19:30.822Z,1.50
2022-10-19T14:21:59.795Z,1.10
2022-10-19T14:24:28.963Z,2.60
2022-10-19T14:26:58.098Z,1.38
2022-10-19T14:29:25.552Z,1.42
2022-10-19T14:34:20.309Z,1.40
2022-10-19T14:39:30.300Z,1.30
2022-10-19T14:42:04.175Z,1.30
2022-10-19T14:44:37.226Z,1.35
2022-10-19T14:47:07.938Z,1.25
2022-10-19T14:49:35.366Z,1.13
2022-10-19T14:52:04.003Z,1.55
2022-10-19T14:54:33.096Z,1.60
2022-10-19T14:57:02.904Z,1.27
2022-10-19T14:59:32.036Z,1.27
2022-10-19T15:02:01.216Z,1.40
2022-10-19T15:04:30.422Z,1.10
2022-10-19T15:06:58.815Z,1.50
2022-10-19T15:09:37.548Z,1.20
2022-10-19T15:12:16.449Z,1.00
2022-10-19T15:14:44.023Z,1.00
2022-10-19T15:17:22.429Z,1.48
2022-10-19T15:19:49.859Z,1.52
2022-10-19T15:22:18.359Z,1.10
2022-10-19T15:24:57.209Z,1.30
2022-10-19T15:27:31.380Z,1.73
2022-10-19T15:30:00.598Z,1.40
2022-10-19T15:32:32.154Z,1.60
2022-10-19T15:34:59.832Z,1.45
2022-10-19T15:39:59.669Z,1.40
2022-10-19T15:42:37.082Z,1.27
2022-10-19T15:45:04.712Z,1.35
2022-10-19T15:47:32.230Z,1.98
2022-10-19T15:50:01.381Z,1.42
2022-10-19T15:52:29.627Z,1.40
2022-10-19T15:54:58.003Z,2.58
2022-10-19T15:57:27.123Z,1.45
2022-10-19T15:59:56.606Z,1.65
2022-10-19T16:02:25.211Z,1.98
2022-10-19T16:04:53.505Z,2.28
2022-10-19T16:07:23.055Z,1.52
2022-10-19T16:09:50.474Z,1.95
2022-10-19T16:12:17.905Z,1.50
2022-10-19T16:14:45.376Z,2.10
2022-10-19T16:17:14.756Z,1.92
2022-10-19T16:19:42.225Z,2.38
2022-10-19T16:22:09.848Z,1.95
2022-10-19T16:24:37.555Z,1.55
2022-10-19T16:27:05.048Z,2.45
2022-10-19T16:29:32.509Z,3.08
2022-10-19T16:31:59.980Z,2.42
2022-10-19T16:34:28.752Z,1.88
2022-10-19T16:36:56.177Z,2.40
2022-10-19T16:39:25.387Z,2.17
2022-10-19T16:41:52.849Z,1.95
2022-10-19T16:44:20.239Z,1.80
2022-10-19T16:46:47.611Z,2.10
2022-10-19T16:49:15.047Z,2.15
2022-10-19T16:51:43.764Z,2.38
2022-10-19T16:54:11.672Z,2.15
2022-10-19T16:59:06.903Z,2.38
2022-10-19T17:04:01.601Z,2.15
2022-10-19T17:06:29.095Z,2.10
2022-10-19T17:11:46.197Z,2.50
2022-10-19T17:14:13.799Z,3.13
2022-10-19T17:16:41.271Z,2.00
2022-10-19T17:19:09.332Z,2.78
2022-10-19T17:24:08.034Z,2.30
2022-10-19T17:26:36.367Z,2.85
2022-10-19T17:29:04.505Z,2.58
2022-10-19T17:31:31.979Z,2.22
2022-10-19T17:34:00.525Z,2.60
2022-10-19T17:36:29.036Z,2.55
2022-10-19T17:38:56.831Z,2.03
2022-10-19T17:41:26.267Z,2.22
2022-10-19T17:43:53.860Z,2.17
2022-10-19T17:46:22.403Z,3.22
2022-10-19T17:48:49.901Z,2.05
2022-10-19T17:51:18.547Z,2.45
2022-10-19T17:53:46.578Z,1.92
2022-10-19T17:58:42.568Z,2.83
2022-10-19T18:01:10.819Z,3.08
2022-10-19T18:03:39.624Z,2.78
2022-10-19T18:06:09.876Z,2.70
2022-10-19T18:08:39.304Z,2.70
2022-10-19T18:11:07.695Z,2.40
2022-10-19T18:16:10.014Z,2.70
2022-10-19T18:18:38.498Z,2.67
2022-10-19T18:21:07.100Z,2.70
2022-10-19T18:23:34.597Z,2.67
2022-10-19T18:26:02.513Z,3.58
2022-10-19T18:30:57.395Z,2.92
2022-10-19T18:33:30.188Z,4.07
2022-10-19T18:35:59.884Z,2.83
2022-10-19T18:38:27.241Z,3.22
2022-10-19T18:40:54.974Z,2.88
2022-10-19T18:43:22.405Z,2.72
2022-10-19T18:45:53.204Z,2.90
2022-10-19T18:48:20.591Z,2.65
2022-10-19T18:50:49.447Z,3.20
2022-10-19T18:53:16.933Z,3.70
2022-10-19T18:55:44.387Z,4.68
2022-10-19T18:58:11.881Z,4.00
2022-10-19T19:00:44.816Z,2.60
2022-10-19T19:03:13.147Z,3.65
2022-10-19T19:05:40.535Z,4.13
2022-10-19T19:08:09.252Z,3.03
2022-10-19T19:10:36.635Z,4.00
2022-10-19T19:13:04.097Z,3.70
2022-10-19T19:15:31.459Z,3.45
2022-10-19T19:17:58.826Z,3.90
2022-10-19T19:20:26.227Z,3.90
2022-10-19T19:22:53.647Z,3.28
2022-10-19T19:25:22.384Z,4.20
2022-10-19T19:27:49.757Z,4.60
2022-10-19T19:30:17.258Z,4.35
2022-10-19T19:32:44.633Z,3.45
2022-10-19T19:35:12.081Z,4.63
2022-10-19T19:37:39.493Z,4.53
2022-10-19T19:40:07.467Z,4.63
2022-10-19T19:45:03.469Z,3.72
2022-10-19T19:47:30.828Z,3.58
2022-10-19T19:49:58.216Z,3.30
2022-10-19T19:52:25.635Z,3.78
2022-10-19T19:54:53.024Z,4.25
2022-10-19T19:57:20.500Z,4.60
2022-10-19T19:59:47.876Z,5.40
2022-10-19T20:02:16.723Z,4.15
2022-10-19T20:04:44.081Z,5.38
2022-10-19T20:07:11.522Z,4.38
2022-10-19T20:09:38.891Z,4.55
2022-10-19T20:12:06.401Z,4.97
2022-10-19T20:14:33.782Z,4.30
2022-10-19T20:17:01.195Z,5.03
2022-10-19T20:19:29.870Z,5.25
2022-10-19T20:21:59.019Z,4.60
2022-10-19T20:24:26.530Z,5.38
2022-10-19T20:26:54.289Z,4.65
2022-10-19T20:29:22.119Z,4.65
2022-10-19T20:31:49.560Z,4.60
2022-10-19T20:34:19.522Z,5.30
2022-10-19T20:36:50.623Z,6.03
2022-10-19T20:39:17.971Z,5.40
2022-10-19T20:41:45.373Z,4.80
2022-10-19T20:44:12.869Z,5.43
2022-10-19T20:46:40.253Z,6.18
2022-10-19T20:49:07.783Z,5.82
2022-10-19T20:51:37.085Z,5.93
2022-10-19T20:54:06.963Z,5.63
2022-10-19T20:56:35.649Z,5.60
2022-10-19T21:01:36.963Z,5.72
2022-10-19T21:04:05.088Z,5.07
2022-10-19T21:06:33.227Z,6.40
2022-10-19T21:09:00.856Z,7.00
2022-10-19T21:11:30.414Z,6.60
2022-10-19T21:13:58.744Z,6.32
2022-10-19T21:16:28.224Z,5.97
2022-10-19T21:18:55.728Z,6.38
2022-10-19T21:21:24.063Z,7.05
2022-10-19T21:23:52.286Z,7.80
2022-10-19T21:26:19.655Z,7.25
2022-10-19T21:28:49.128Z,6.05
2022-10-19T21:31:17.284Z,6.35
2022-10-19T21:33:45.005Z,6.13
2022-10-19T21:36:13.557Z,7.45
2022-10-19T21:38:41.248Z,6.95
2022-10-19T21:41:09.555Z,7.13
2022-10-19T21:43:37.139Z,6.28
2022-10-19T21:46:06.865Z,6.38
2022-10-19T21:48:34.754Z,6.55
2022-10-19T21:53:29.393Z,7.25
2022-10-19T21:56:00.066Z,7.50
2022-10-19T21:58:27.624Z,7.25
2022-10-19T22:00:54.996Z,7.53
2022-10-19T22:03:23.729Z,7.32
2022-10-19T22:05:52.084Z,6.70
2022-10-19T22:08:19.463Z,7.20
2022-10-19T22:10:46.842Z,7.68
2022-10-19T22:13:14.215Z,7.97
2022-10-19T22:15:41.865Z,7.63
2022-10-19T22:18:09.620Z,7.70
2022-10-19T22:20:38.710Z,7.38
2022-10-19T22:23:06.828Z,8.00
2022-10-19T22:25:34.667Z,8.20
2022-10-19T22:28:02.068Z,8.05
2022-10-19T22:30:29.539Z,8.38
2022-10-19T22:32:56.929Z,8.07
2022-10-19T22:35:24.338Z,8.70
2022-10-19T22:37:53.061Z,10.82
2022-10-19T22:40:20.434Z,8.55
2022-10-19T22:42:47.832Z,9.00
2022-10-19T22:45:15.310Z,8.55
2022-10-19T22:47:42.685Z,9.45
2022-10-19T22:50:11.647Z,8.18
2022-10-19T22:52:39.423Z,9.45
2022-10-19T22:55:08.590Z,7.32
2022-10-19T22:57:35.980Z,8.52
2022-10-19T23:00:03.681Z,8.80
2022-10-19T23:02:31.117Z,10.02
2022-10-19T23:04:58.524Z,9.38
2022-10-19T23:07:25.938Z,9.55
2022-10-19T23:09:53.341Z,9.15
2022-10-19T23:12:22.271Z,8.75
2022-10-19T23:14:49.682Z,9.48
2022-10-19T23:17:17.152Z,10.23
2022-10-19T23:19:44.536Z,9.30
2022-10-19T23:22:11.895Z,10.88
2022-10-19T23:24:39.328Z,9.18
2022-10-19T23:27:06.746Z,8.93
2022-10-19T23:29:35.490Z,9.05
2022-10-19T23:32:02.866Z,8.23
2022-10-19T23:34:30.583Z,8.20
2022-10-19T23:36:58.081Z,8.45
2022-10-19T23:39:25.491Z,8.43
2022-10-19T23:41:52.875Z,7.90
2022-10-19T23:44:20.270Z,8.23
2022-10-19T23:46:49.183Z,7.55
2022-10-19T23:49:16.594Z,7.72
2022-10-19T23:51:43.983Z,7.65
2022-10-19T23:54:11.368Z,7.78
2022-10-19T23:56:38.810Z,7.95
2022-10-19T23:59:07.675Z,7.03
